Time;durP1;ratioP1;P1;durP2;ratioP2;P2;SDS_P1;SDS_P2;PMS_P1;PMS_P2;Temp;Humidity;BMP_temperature;BMP_pressure;BME280_temperature;BME280_humidity;BME280_pressure;Samples;Min_cycle;Max_cycle;Signal;HPM_P1;HPM_P2
2021/10/16 00:03:12;;;;;;;8.80;5.70;;;;;;;7.76;77.97;99511.36;466261;1191;141384;-60
2021/10/16 00:13:18;;;;;;;7.40;5.40;;;;;;;7.76;78.06;99519.02;469490;1191;140689;-61
2021/10/16 00:23:26;;;;;;;11.90;6.40;;;;;;;7.69;78.02;99523.20;468837;1192;140082;-59
2021/10/16 00:33:33;;;;;;;8.60;7.00;;;;;;;7.72;78.35;99520.25;461823;1183;141311;-60
2021/10/16 00:43:40;;;;;;;12.30;8.30;;;;;;;7.70;78.45;99521.91;465496;1191;140845;-62
2021/10/16 00:53:46;;;;;;;10.50;7.50;;;;;;;7.70;78.71;99527.82;463002;1192;140656;-59
2021/10/16 01:03:52;;;;;;;11.10;7.90;;;;;;;7.70;78.62;99530.45;470551;1192;140246;-59
2021/10/16 01:13:58;;;;;;;12.20;7.30;;;;;;;7.70;78.54;99538.11;460619;1192;141530;-59
2021/10/16 01:24:05;;;;;;;11.80;9.60;;;;;;;7.65;78.69;99541.55;459927;1192;141812;-60
2021/10/16 01:34:11;;;;;;;10.20;9.00;;;;;;;7.60;78.67;99538.67;462165;1192;196173;-58
2021/10/16 01:44:18;;;;;;;12.10;8.20;;;;;;;7.57;79.07;99538.30;466980;1191;140412;-59
2021/10/16 01:54:25;;;;;;;10.50;8.30;;;;;;;7.50;78.85;99542.66;473005;1192;142519;-60
2021/10/16 02:04:32;;;;;;;10.70;6.10;;;;;;;7.51;78.99;99547.68;474481;1192;141065;-60
2021/10/16 02:14:37;;;;;;;6.10;5.50;;;;;;;7.50;78.74;99557.14;471495;1191;141240;-61
2021/10/16 02:24:43;;;;;;;9.10;5.80;;;;;;;7.51;78.72;99567.71;469437;1192;141019;-59
2021/10/16 02:34:49;;;;;;;9.50;5.80;;;;;;;7.57;78.69;99576.98;460990;1192;140812;-59
2021/10/16 02:44:56;;;;;;;8.90;6.30;;;;;;;7.55;78.68;99580.70;459980;1191;142112;-59
2021/10/16 02:55:02;;;;;;;6.80;5.50;;;;;;;7.53;78.63;99592.48;468727;1191;141414;-60
2021/10/16 03:05:09;;;;;;;9.50;5.00;;;;;;;7.53;78.55;99595.96;475771;1191;144082;-60
2021/10/16 03:15:15;;;;;;;5.70;4.70;;;;;;;7.47;78.48;99594.23;474435;1191;141340;-59
2021/10/16 03:25:21;;;;;;;10.80;6.40;;;;;;;7.43;78.59;99599.81;463492;1191;143185;-58
2021/10/16 03:35:28;;;;;;;11.40;6.90;;;;;;;7.38;78.78;99611.87;464245;1191;143465;-59
2021/10/16 03:45:33;;;;;;;10.80;6.40;;;;;;;7.30;78.87;99621.70;460589;1192;142688;-58
2021/10/16 03:55:40;;;;;;;10.50;6.30;;;;;;;7.22;78.95;99623.29;464866;1192;141262;-59
2021/10/16 04:05:46;;;;;;;10.70;8.20;;;;;;;7.23;79.30;99626.73;462573;1192;140981;-63
2021/10/16 04:15:53;;;;;;;10.00;6.90;;;;;;;7.20;79.19;99635.05;465013;1191;141355;-60
2021/10/16 04:25:59;;;;;;;9.20;6.50;;;;;;;7.07;79.37;99640.38;461429;1192;140460;-61
2021/10/16 04:36:06;;;;;;;8.40;7.70;;;;;;;7.00;79.76;99642.28;461925;1192;140625;-60
2021/10/16 04:46:13;;;;;;;12.50;7.80;;;;;;;7.03;79.94;99646.16;473827;1191;140381;-59
2021/10/16 04:56:19;;;;;;;10.20;7.80;;;;;;;7.05;80.01;99654.79;476596;1192;141151;-60
2021/10/16 05:06:25;;;;;;;18.10;8.70;;;;;;;7.02;79.82;99658.39;477193;1191;140791;-61
2021/10/16 05:16:32;;;;;;;13.80;6.80;;;;;;;7.02;79.87;99658.56;477003;1191;142012;-60
2021/10/16 05:26:40;;;;;;;18.70;8.50;;;;;;;7.03;79.82;99668.61;476362;1191;161633;-61
2021/10/16 05:36:46;;;;;;;14.10;9.30;;;;;;;7.05;79.61;99681.40;471122;1191;141906;-59
2021/10/16 05:46:52;;;;;;;13.80;8.00;;;;;;;6.94;79.47;99685.41;477380;1191;140404;-60
2021/10/16 05:56:57;;;;;;;11.80;8.30;;;;;;;7.10;79.29;99694.18;473718;1191;144634;-61
2021/10/16 06:07:03;;;;;;;12.30;7.20;;;;;;;7.23;78.88;99713.77;477382;1191;144471;-62
2021/10/16 06:17:09;;;;;;;13.00;8.00;;;;;;;7.32;78.60;99731.63;477287;1191;141082;-63
2021/10/16 06:27:16;;;;;;;13.20;7.90;;;;;;;7.51;78.27;99748.69;465903;1188;142247;-63
2021/10/16 06:37:22;;;;;;;11.20;5.90;;;;;;;7.85;77.65;99757.10;460851;1192;140585;-61
2021/10/16 06:47:28;;;;;;;13.70;6.60;;;;;;;8.70;76.70;99763.91;470253;1184;141169;-64
2021/10/16 06:57:34;;;;;;;12.90;5.40;;;;;;;10.39;74.58;99770.39;466249;1192;141794;-63
2021/10/16 07:07:41;;;;;;;9.00;4.70;;;;;;;10.18;72.15;99785.42;461254;1177;141054;-62
2021/10/16 07:17:47;;;;;;;5.80;4.80;;;;;;;9.57;72.27;99800.66;466211;1192;141182;-63
2021/10/16 07:27:54;;;;;;;12.50;5.20;;;;;;;9.09;72.05;99806.27;471587;1191;140746;-65
2021/10/16 07:38:00;;;;;;;7.70;4.30;;;;;;;8.56;71.62;99813.00;460915;1192;141519;-63
2021/10/16 07:48:06;;;;;;;9.20;4.00;;;;;;;8.53;71.81;99829.42;476757;1191;195304;-63
2021/10/16 07:58:13;;;;;;;8.60;4.70;;;;;;;9.11;71.27;99832.66;465798;1192;142414;-64
2021/10/16 08:08:19;;;;;;;9.50;4.40;;;;;;;9.58;70.31;99838.14;463947;1192;143264;-68
2021/10/16 08:18:26;;;;;;;12.70;7.00;;;;;;;9.59;69.62;99848.57;460713;1191;140816;-64
2021/10/16 08:28:32;;;;;;;9.40;5.90;;;;;;;9.40;69.40;99857.98;460584;1189;142291;-63
2021/10/16 08:38:39;;;;;;;7.90;6.70;;;;;;;9.16;69.65;99864.02;468042;1192;143088;-66
2021/10/16 08:48:45;;;;;;;11.90;7.40;;;;;;;9.04;69.68;99865.02;460678;1192;141879;-67
2021/10/16 08:58:52;;;;;;;13.40;7.70;;;;;;;9.18;69.73;99876.48;460710;1192;141182;-66
2021/10/16 09:09:00;;;;;;;11.10;6.50;;;;;;;9.48;69.60;99880.80;476605;1192;141040;-66
2021/10/16 09:19:10;;;;;;;11.20;8.00;;;;;;;10.28;68.34;99885.11;461477;1191;10002230;-66
2021/10/16 09:29:19;;;;;;;12.50;8.10;;;;;;;9.88;68.06;99900.64;463695;1192;142917;-63
2021/10/16 09:39:25;;;;;;;12.20;6.10;;;;;;;10.10;67.48;99908.70;460729;1191;140287;-64
2021/10/16 09:49:34;;;;;;;20.70;5.70;;;;;;;10.36;66.67;99907.27;461159;1192;143121;-69
2021/10/16 09:59:41;;;;;;;7.80;4.80;;;;;;;10.35;66.00;99919.03;460870;1193;141158;-61
2021/10/16 10:09:47;;;;;;;11.50;5.80;;;;;;;10.19;65.30;99924.27;468409;1191;141792;-59
2021/10/16 10:19:57;;;;;;;9.20;4.90;;;;;;;10.12;65.46;99917.50;453685;1192;10002041;-65
2021/10/16 10:30:03;;;;;;;9.50;4.90;;;;;;;10.61;65.10;99915.27;460617;1191;142742;-65
2021/10/16 10:40:23;;;;;;;12.60;4.00;;;;;;;10.76;63.75;99909.15;461131;1191;141993;-65
2021/10/16 10:51:02;;;;;;;7.80;4.00;;;;;;;10.58;63.21;99897.59;463206;1191;140686;-64
2021/10/16 11:01:08;;;;;;;8.20;3.90;;;;;;;10.65;62.99;99895.45;461794;1188;141391;-65
2021/10/16 11:11:15;;;;;;;8.60;3.80;;;;;;;10.84;62.66;99891.15;462068;1192;140888;-65
2021/10/16 11:21:24;;;;;;;11.10;5.20;;;;;;;10.73;62.14;99893.76;460867;1186;141493;-61
2021/10/16 11:31:30;;;;;;;7.90;3.40;;;;;;;10.14;62.01;99889.25;463143;1192;141305;-68
2021/10/16 11:41:36;;;;;;;5.90;3.00;;;;;;;10.08;62.50;99885.23;461165;1191;141502;-65
2021/10/16 11:51:42;;;;;;;12.00;4.00;;;;;;;10.54;61.85;99882.27;467900;1192;142569;-68
2021/10/16 12:01:47;;;;;;;10.10;3.60;;;;;;;10.70;61.19;99877.10;477399;1191;142076;-66
2021/10/16 12:12:01;;;;;;;6.60;3.50;;;;;;;10.63;60.80;99875.09;476599;1184;141212;-76
2021/10/16 12:22:10;;;;;;;6.80;2.80;;;;;;;10.70;60.42;99866.05;477609;1191;140416;-63
2021/10/16 12:32:18;;;;;;;8.50;3.20;;;;;;;10.62;60.25;99870.73;469757;1191;141762;-63
2021/10/16 12:42:25;;;;;;;8.10;2.20;;;;;;;10.47;59.85;99865.01;477318;1191;140573;-59
2021/10/16 12:52:35;;;;;;;3.10;1.90;;;;;;;10.56;59.69;99864.80;477172;1192;141547;-67
2021/10/16 13:02:42;;;;;;;7.30;2.40;;;;;;;10.59;58.77;99868.30;476674;1191;140605;-67
2021/10/16 13:12:48;;;;;;;5.70;2.80;;;;;;;10.59;58.59;99869.70;462113;1192;140621;-72
2021/10/16 13:22:54;;;;;;;6.20;3.00;;;;;;;10.47;58.28;99875.64;460511;1192;140342;-60
2021/10/16 13:33:00;;;;;;;7.30;3.20;;;;;;;10.39;58.33;99869.27;462761;1192;140379;-68
2021/10/16 13:43:06;;;;;;;8.00;3.70;;;;;;;10.08;58.79;99875.21;462011;1184;140093;-64
2021/10/16 13:53:12;;;;;;;8.60;3.30;;;;;;;9.95;59.41;99874.73;465635;1192;141178;-68
2021/10/16 14:03:18;;;;;;;8.10;3.70;;;;;;;9.87;59.60;99879.36;476913;1191;139879;-62
2021/10/16 14:13:24;;;;;;;6.80;3.50;;;;;;;9.79;59.98;99880.20;477552;1192;151878;-72
2021/10/16 14:23:30;;;;;;;9.20;4.50;;;;;;;9.82;59.89;99883.50;476517;1191;140767;-77
2021/10/16 14:33:36;;;;;;;7.80;3.40;;;;;;;9.81;59.84;99886.90;477337;1192;140629;-64
2021/10/16 14:43:42;;;;;;;12.40;4.50;;;;;;;9.66;59.84;99889.43;477319;1191;141452;-65
2021/10/16 14:53:48;;;;;;;8.60;3.60;;;;;;;9.49;60.30;99887.95;476230;1192;144133;-69
2021/10/16 15:03:54;;;;;;;9.70;3.40;;;;;;;9.31;60.50;99889.95;477047;1192;141114;-63
2021/10/16 15:14:02;;;;;;;7.60;3.70;;;;;;;9.04;60.97;99893.31;477345;1191;142466;-70
2021/10/16 15:24:08;;;;;;;8.20;3.70;;;;;;;8.72;61.61;99901.94;476712;1191;141380;-60
2021/10/16 15:34:14;;;;;;;7.40;3.60;;;;;;;8.64;61.98;99903.73;477438;1190;141896;-61
2021/10/16 15:44:20;;;;;;;10.50;4.30;;;;;;;8.44;62.30;99904.85;476389;1192;142514;-64
2021/10/16 15:54:26;;;;;;;12.70;5.10;;;;;;;8.31;62.97;99908.49;477537;1190;141327;-63
2021/10/16 16:04:32;;;;;;;5.40;3.50;;;;;;;8.21;63.20;99911.76;477169;1192;141977;-63
2021/10/16 16:14:38;;;;;;;8.00;5.20;;;;;;;8.07;64.02;99921.46;476549;1191;142580;-63
2021/10/16 16:24:44;;;;;;;8.50;4.60;;;;;;;7.98;64.35;99929.77;477247;1192;141720;-64
2021/10/16 16:34:50;;;;;;;16.10;8.20;;;;;;;7.83;64.90;99927.49;470172;1192;143152;-65
2021/10/16 16:44:56;;;;;;;18.90;6.70;;;;;;;7.52;65.42;99935.20;470965;1191;143576;-66
2021/10/16 16:55:04;;;;;;;22.50;10.10;;;;;;;7.40;66.31;99935.58;477333;1191;141110;-66
2021/10/16 17:05:11;;;;;;;18.80;6.10;;;;;;;7.40;66.40;99933.29;477362;1191;142113;-66
2021/10/16 17:15:17;;;;;;;10.80;6.90;;;;;;;7.43;65.72;99939.27;477347;1191;141614;-66
2021/10/16 17:25:23;;;;;;;18.40;10.10;;;;;;;7.33;66.25;99938.64;477451;1184;144509;-66
2021/10/16 17:35:30;;;;;;;55.10;24.50;;;;;;;6.93;66.56;99947.02;476631;1191;141169;-65
2021/10/16 17:45:36;;;;;;;63.30;26.30;;;;;;;6.32;67.28;99952.50;477306;1192;141337;-66
2021/10/16 17:55:42;;;;;;;44.80;19.90;;;;;;;5.84;68.42;99955.39;470029;1190;142858;-65
2021/10/16 18:05:48;;;;;;;39.70;17.40;;;;;;;5.41;69.25;99955.76;460119;1184;141853;-64
2021/10/16 18:15:54;;;;;;;37.70;17.20;;;;;;;5.04;69.93;99958.45;463482;1191;141510;-65
2021/10/16 18:26:00;;;;;;;31.30;15.70;;;;;;;4.75;70.37;99961.90;477321;1192;141670;-67
2021/10/16 18:36:06;;;;;;;31.30;14.60;;;;;;;4.57;70.75;99962.13;476617;1191;141464;-65
2021/10/16 18:46:12;;;;;;;30.90;16.10;;;;;;;4.44;71.12;99958.92;477424;1191;140927;-66
2021/10/16 18:56:18;;;;;;;29.20;15.60;;;;;;;4.33;71.73;99959.27;476667;1190;142821;-65
2021/10/16 19:06:24;;;;;;;28.80;16.30;;;;;;;4.38;72.08;99966.91;468122;1191;141849;-63
2021/10/16 19:16:30;;;;;;;24.90;17.30;;;;;;;4.39;71.86;99963.93;461279;1190;20001818;-64
2021/10/16 19:26:36;;;;;;;31.60;18.80;;;;;;;4.38;72.34;99959.63;466707;1191;185964;-62
2021/10/16 19:36:42;;;;;;;33.30;23.10;;;;;;;4.36;72.70;99960.19;467421;1191;140782;-64
2021/10/16 19:46:48;;;;;;;30.00;20.60;;;;;;;4.39;72.85;99965.51;469561;1191;140697;-63
2021/10/16 19:56:53;;;;;;;36.90;24.50;;;;;;;4.45;73.29;99969.96;475970;1191;141234;-63
2021/10/16 20:07:00;;;;;;;35.30;22.90;;;;;;;4.59;73.24;99971.28;476943;1191;143533;-64
2021/10/16 20:17:07;;;;;;;33.00;23.60;;;;;;;4.74;73.36;99975.96;476935;1191;141589;-62
2021/10/16 20:27:13;;;;;;;38.70;27.30;;;;;;;4.89;73.48;99978.58;476565;1190;140765;-62
2021/10/16 20:37:19;;;;;;;40.90;26.70;;;;;;;5.07;73.56;99976.06;477306;1190;153222;-61
2021/10/16 20:47:25;;;;;;;40.70;25.90;;;;;;;5.22;73.52;99979.36;476554;1190;144251;-62
2021/10/16 20:57:31;;;;;;;38.90;25.50;;;;;;;5.32;73.63;99976.59;477366;1190;141809;-62
2021/10/16 21:07:37;;;;;;;42.80;29.90;;;;;;;5.41;73.75;99979.38;477077;1191;141372;-61
2021/10/16 21:17:43;;;;;;;33.20;25.90;;;;;;;5.45;73.97;99980.27;476608;1190;143259;-62
2021/10/16 21:27:49;;;;;;;34.00;23.50;;;;;;;5.53;74.07;99982.27;477352;1190;140680;-63
2021/10/16 21:37:56;;;;;;;38.60;23.10;;;;;;;5.62;74.17;99981.23;477518;1190;141619;-63
2021/10/16 21:48:02;;;;;;;40.10;23.30;;;;;;;5.68;74.38;99974.73;476988;1190;142073;-63
2021/10/16 21:58:08;;;;;;;30.20;17.70;;;;;;;5.74;74.20;99969.83;477953;1190;141641;-68
2021/10/16 22:08:15;;;;;;;24.00;15.60;;;;;;;5.80;74.50;99973.26;470010;1190;142620;-67
2021/10/16 22:18:21;;;;;;;24.70;14.50;;;;;;;5.84;74.38;99972.41;467354;1190;141825;-67
2021/10/16 22:28:27;;;;;;;24.90;15.20;;;;;;;5.87;74.57;99972.46;467028;1190;142029;-67
2021/10/16 22:38:34;;;;;;;25.50;15.40;;;;;;;5.93;74.70;99969.65;473908;1182;141958;-66
2021/10/16 22:48:40;;;;;;;26.00;14.50;;;;;;;5.93;74.64;99964.06;460494;1190;141876;-66
2021/10/16 22:58:50;;;;;;;23.90;15.80;;;;;;;5.95;74.85;99963.84;475008;1190;140764;-66
2021/10/16 23:08:57;;;;;;;24.60;15.10;;;;;;;5.96;75.06;99967.97;471819;1190;141577;-68
2021/10/16 23:19:04;;;;;;;20.20;13.70;;;;;;;5.99;75.09;99968.39;477677;1190;140454;-67
2021/10/16 23:29:10;;;;;;;18.00;14.30;;;;;;;6.01;75.26;99964.32;477873;1190;141885;-68
2021/10/16 23:39:17;;;;;;;21.00;13.60;;;;;;;6.00;75.28;99962.42;477082;1190;141445;-66
2021/10/16 23:49:23;;;;;;;21.20;14.90;;;;;;;6.03;75.39;99961.46;472522;1190;141119;-64
2021/10/16 23:59:28;;;;;;;20.10;13.10;;;;;;;6.04;75.56;99962.64;467940;1190;142029;-67
